createdAt,value
2018-09-13T00:01:51.396Z,98876.28
2018-09-13T00:04:19.637Z,98886.70
2018-09-13T00:06:47.709Z,98891.77
2018-09-13T00:09:15.831Z,98885.45
2018-09-13T00:11:43.890Z,98891.43
2018-09-13T00:14:12.036Z,98885.69
2018-09-13T00:16:40.219Z,98880.09
2018-09-13T00:19:08.411Z,98879.25
2018-09-13T00:21:36.479Z,98881.42
2018-09-13T00:24:04.558Z,98873.95
2018-09-13T00:26:32.660Z,98871.76
2018-09-13T00:29:00.840Z,98863.94
2018-09-13T00:31:28.991Z,98866.42
2018-09-13T00:33:57.190Z,98861.29
2018-09-13T00:36:25.303Z,98859.17
2018-09-13T00:38:53.411Z,98859.66
2018-09-13T00:41:21.579Z,98857.65
2018-09-13T00:43:49.656Z,98856.97
2018-09-13T00:46:17.754Z,98852.93
2018-09-13T00:48:45.839Z,98857.11
2018-09-13T00:51:13.935Z,98854.16
2018-09-13T00:53:42.039Z,98850.23
2018-09-13T00:56:10.782Z,98851.09
2018-09-13T00:58:39.039Z,98847.95
2018-09-13T01:01:07.142Z,98838.98
2018-09-13T01:03:35.241Z,98833.75
2018-09-13T01:06:03.401Z,98837.36
2018-09-13T01:08:31.470Z,98844.63
2018-09-13T01:10:59.620Z,98858.66
2018-09-13T01:13:28.295Z,98863.63
2018-09-13T01:15:56.404Z,98859.19
2018-09-13T01:18:24.551Z,98854.35
2018-09-13T01:20:52.817Z,98849.87
2018-09-13T01:23:20.912Z,98858.17
2018-09-13T01:25:49.330Z,98859.86
2018-09-13T01:28:17.408Z,98855.77
2018-09-13T01:30:45.517Z,98851.43
2018-09-13T01:33:13.650Z,98851.60
2018-09-13T01:35:41.735Z,98852.81
2018-09-13T01:38:09.837Z,98847.00
2018-09-13T01:40:37.909Z,98858.31
2018-09-13T01:43:06.397Z,98849.48
2018-09-13T01:45:34.557Z,98844.98
2018-09-13T01:48:02.640Z,98845.59
2018-09-13T01:50:31.387Z,98855.58
2018-09-13T01:52:59.512Z,98863.22
2018-09-13T01:55:27.654Z,98859.84
2018-09-13T01:57:55.734Z,98856.91
2018-09-13T02:00:23.807Z,98855.47
2018-09-13T02:02:51.863Z,98858.50
2018-09-13T02:05:19.930Z,98857.86
2018-09-13T02:07:48.005Z,98859.08
2018-09-13T02:10:16.058Z,98858.04
2018-09-13T02:12:44.144Z,98860.17
2018-09-13T02:15:12.217Z,98855.28
2018-09-13T02:17:40.357Z,98849.80
2018-09-13T02:20:08.436Z,98854.19
2018-09-13T02:22:36.507Z,98843.58
2018-09-13T02:25:04.589Z,98835.19
2018-09-13T02:27:32.661Z,98841.20
2018-09-13T02:30:01.867Z,98844.84
2018-09-13T02:32:29.975Z,98851.17
2018-09-13T02:34:58.032Z,98850.64
2018-09-13T02:37:26.133Z,98844.89
2018-09-13T02:39:54.239Z,98848.92
2018-09-13T02:42:22.325Z,98848.45
2018-09-13T02:44:50.402Z,98857.92
2018-09-13T02:47:18.494Z,98859.28
2018-09-13T02:49:46.567Z,98853.17
2018-09-13T02:52:14.671Z,98850.98
2018-09-13T02:54:42.868Z,98847.79
2018-09-13T02:57:10.948Z,98850.66
2018-09-13T02:59:39.034Z,98852.42
2018-09-13T03:02:07.131Z,98846.62
2018-09-13T03:04:35.200Z,98848.81
2018-09-13T03:07:03.270Z,98844.27
2018-09-13T03:09:31.339Z,98834.66
2018-09-13T03:11:59.412Z,98835.20
2018-09-13T03:14:27.488Z,98836.47
2018-09-13T03:16:55.687Z,98835.48
2018-09-13T03:19:23.889Z,98835.37
2018-09-13T03:21:51.997Z,98839.84
2018-09-13T03:24:20.255Z,98839.84
2018-09-13T03:26:48.509Z,98833.51
2018-09-13T03:29:16.613Z,98827.63
2018-09-13T03:31:45.478Z,98839.62
2018-09-13T03:34:13.571Z,98834.96
2018-09-13T03:36:41.650Z,98839.98
2018-09-13T03:39:11.045Z,98839.31
2018-09-13T03:41:39.187Z,98840.94
2018-09-13T03:44:07.564Z,98840.52
2018-09-13T03:46:36.064Z,98837.49
2018-09-13T03:49:04.260Z,98835.40
2018-09-13T03:51:32.363Z,98842.28
2018-09-13T03:54:00.486Z,98836.84
2018-09-13T03:56:28.590Z,98838.66
2018-09-13T03:58:57.234Z,98846.65
2018-09-13T04:01:25.318Z,98845.31
2018-09-13T04:03:53.414Z,98845.06
2018-09-13T04:06:21.511Z,98846.72
2018-09-13T04:08:49.982Z,98845.08
2018-09-13T04:11:18.062Z,98841.08
2018-09-13T04:13:46.138Z,98841.94
2018-09-13T04:16:14.244Z,98839.62
2018-09-13T04:18:42.999Z,98837.95
2018-09-13T04:21:13.028Z,98831.30
2018-09-13T04:38:56.247Z,98830.83
2018-09-13T04:50:32.881Z,98821.70
2018-09-13T04:53:01.054Z,98817.36
2018-09-13T04:55:29.274Z,98816.90
2018-09-13T04:58:04.081Z,98821.52
2018-09-13T05:00:32.286Z,98816.22
2018-09-13T05:03:00.476Z,98813.23
2018-09-13T05:05:28.692Z,98815.05
2018-09-13T05:07:56.854Z,98819.37
2018-09-13T05:10:25.001Z,98828.86
2018-09-13T05:12:53.289Z,98833.31
2018-09-13T05:15:21.397Z,98840.19
2018-09-13T05:17:49.865Z,98841.33
2018-09-13T05:20:18.046Z,98843.13
2018-09-13T05:22:46.204Z,98836.48
2018-09-13T05:25:14.397Z,98832.20
2018-09-13T05:27:42.560Z,98837.67
2018-09-13T05:30:10.706Z,98836.50
2018-09-13T05:32:38.880Z,98831.33
2018-09-13T05:35:08.068Z,98825.17
2018-09-13T05:37:36.243Z,98821.19
2018-09-13T05:40:04.587Z,98817.55
2018-09-13T05:42:32.805Z,98815.87
2018-09-13T05:45:00.981Z,98821.22
2018-09-13T05:47:29.213Z,98831.52
2018-09-13T05:49:57.355Z,98834.17
2018-09-13T05:52:25.525Z,98842.28
2018-09-13T05:54:53.683Z,98843.39
2018-09-13T05:57:22.135Z,98847.44
2018-09-13T05:59:50.317Z,98843.08
2018-09-13T06:02:18.407Z,98848.40
2018-09-13T06:04:46.551Z,98844.34
2018-09-13T06:07:14.952Z,98843.95
2018-09-13T06:09:43.071Z,98848.63
2018-09-13T06:12:11.184Z,98853.30
2018-09-13T06:14:39.304Z,98855.05
2018-09-13T06:17:07.403Z,98855.71
2018-09-13T06:19:35.528Z,98856.81
2018-09-13T06:22:03.632Z,98853.59
2018-09-13T06:24:31.747Z,98866.11
2018-09-13T06:26:59.852Z,98866.97
2018-09-13T06:29:27.981Z,98862.97
2018-09-13T06:31:56.050Z,98859.64
2018-09-13T06:34:24.173Z,98854.44
2018-09-13T06:36:52.332Z,98858.84
2018-09-13T06:39:20.439Z,98855.28
2018-09-13T06:41:48.584Z,98864.08
2018-09-13T06:44:16.690Z,98858.48
2018-09-13T06:46:44.803Z,98852.91
2018-09-13T06:49:12.931Z,98851.42
2018-09-13T06:51:41.058Z,98849.17
2018-09-13T06:54:09.268Z,98846.27
2018-09-13T06:56:37.403Z,98853.61
2018-09-13T06:59:05.734Z,98859.41
2018-09-13T07:01:33.859Z,98867.42
2018-09-13T07:04:01.948Z,98862.83
2018-09-13T07:06:30.066Z,98871.66
2018-09-13T07:08:58.230Z,98863.09
2018-09-13T07:11:26.384Z,98867.13
2018-09-13T07:13:54.498Z,98865.30
2018-09-13T07:16:22.606Z,98856.98
2018-09-13T07:18:50.736Z,98838.42
2018-09-13T07:21:18.863Z,98837.36
2018-09-13T07:23:46.992Z,98842.06
2018-09-13T07:26:15.099Z,98838.56
2018-09-13T07:28:43.227Z,98846.13
2018-09-13T07:31:12.012Z,98851.84
2018-09-13T07:33:40.124Z,98860.13
2018-09-13T07:36:08.243Z,98854.94
2018-09-13T07:38:36.372Z,98856.19
2018-09-13T07:41:04.523Z,98847.45
2018-09-13T07:43:32.647Z,98849.13
2018-09-13T07:46:01.024Z,98849.23
2018-09-13T07:48:29.195Z,98846.39
2018-09-13T07:50:57.319Z,98849.11
2018-09-13T07:53:25.529Z,98850.17
2018-09-13T07:55:53.641Z,98853.64
2018-09-13T07:58:21.752Z,98857.41
2018-09-13T08:00:49.853Z,98858.41
2018-09-13T08:03:17.935Z,98864.59
2018-09-13T08:05:46.068Z,98865.33
2018-09-13T08:08:14.182Z,98872.42
2018-09-13T08:10:42.269Z,98877.70
2018-09-13T08:13:10.467Z,98881.73
2018-09-13T08:15:38.598Z,98878.22
2018-09-13T08:18:06.717Z,98879.02
2018-09-13T08:20:34.850Z,98880.17
2018-09-13T08:23:02.960Z,98879.77
2018-09-13T08:25:31.079Z,98883.23
2018-09-13T08:27:59.170Z,98887.53
2018-09-13T08:30:27.292Z,98886.64
2018-09-13T08:32:55.408Z,98886.69
2018-09-13T08:35:23.529Z,98892.83
2018-09-13T08:37:51.652Z,98890.26
2018-09-13T08:40:20.074Z,98890.09
2018-09-13T08:42:48.130Z,98895.78
2018-09-13T08:45:16.259Z,98892.56
2018-09-13T08:47:45.022Z,98890.14
2018-09-13T08:50:13.122Z,98889.56
2018-09-13T08:52:41.270Z,98894.91
2018-09-13T08:55:10.162Z,98898.63
2018-09-13T08:57:38.292Z,98898.98
2018-09-13T09:00:09.776Z,98901.30
2018-09-13T09:02:37.903Z,98901.40
2018-09-13T09:05:06.108Z,98904.36
2018-09-13T09:07:34.207Z,98909.02
2018-09-13T09:10:02.329Z,98910.71
2018-09-13T09:12:30.429Z,98908.18
2018-09-13T09:14:58.634Z,98907.42
2018-09-13T09:17:26.752Z,98906.27
2018-09-13T09:19:54.861Z,98902.69
2018-09-13T09:22:22.950Z,98907.39
2018-09-13T09:24:51.063Z,98904.03
2018-09-13T09:27:19.200Z,98903.87
2018-09-13T09:29:47.390Z,98909.27
2018-09-13T09:32:15.439Z,98915.61
2018-09-13T09:34:43.566Z,98911.41
2018-09-13T09:37:11.663Z,98912.23
2018-09-13T09:39:39.755Z,98909.60
2018-09-13T09:42:08.681Z,98907.81
2018-09-13T09:44:36.750Z,98912.41
2018-09-13T09:47:04.999Z,98907.19
2018-09-13T09:49:33.099Z,98905.33
2018-09-13T09:52:01.214Z,98907.62
2018-09-13T09:54:29.518Z,98905.58
2018-09-13T09:56:57.597Z,98899.08
2018-09-13T09:59:25.674Z,98908.76
2018-09-13T10:01:59.240Z,98910.87
2018-09-13T10:04:27.365Z,98917.13
2018-09-13T10:06:55.819Z,98914.23
2018-09-13T10:09:23.902Z,98911.52
2018-09-13T10:11:52.018Z,98913.16
2018-09-13T10:14:20.126Z,98916.03
2018-09-13T10:16:54.031Z,98907.69
2018-09-13T10:19:27.548Z,98910.27
2018-09-13T10:22:01.264Z,98908.80
2018-09-13T10:24:34.588Z,98917.13
2018-09-13T10:29:14.581Z,98920.42
2018-09-13T10:31:48.024Z,98914.22
2018-09-13T10:36:27.377Z,98913.31
2018-09-13T10:39:00.816Z,98916.70
2018-09-13T10:41:34.325Z,98919.54
2018-09-13T10:44:07.773Z,98917.44
2018-09-13T10:46:35.905Z,98909.92
2018-09-13T10:49:09.303Z,98904.44
2018-09-13T10:51:42.693Z,98900.11
2018-09-13T10:54:15.564Z,98895.42
2018-09-13T10:56:43.796Z,98895.70
2018-09-13T10:59:11.983Z,98894.66
2018-09-13T11:01:40.073Z,98885.19
2018-09-13T11:04:08.306Z,98893.83
2018-09-13T11:06:36.336Z,98897.22
2018-09-13T11:09:05.276Z,98888.37
2018-09-13T11:11:33.375Z,98887.30
2018-09-13T11:14:06.771Z,98889.42
2018-09-13T11:16:34.909Z,98888.80
2018-09-13T11:19:03.029Z,98887.13
2018-09-13T11:21:31.160Z,98891.30
2018-09-13T11:23:59.343Z,98888.09
2018-09-13T11:26:27.450Z,98893.83
2018-09-13T11:28:55.559Z,98881.83
2018-09-13T11:31:23.650Z,98888.97
2018-09-13T11:33:52.391Z,98885.67
2018-09-13T11:36:20.500Z,98884.12
2018-09-13T11:38:48.608Z,98883.51
2018-09-13T11:41:16.704Z,98879.66
2018-09-13T11:43:44.820Z,98877.09
2018-09-13T11:46:12.903Z,98873.68
2018-09-13T11:48:40.990Z,98874.92
2018-09-13T11:51:09.099Z,98873.48
2018-09-13T11:53:37.188Z,98872.62
2018-09-13T11:56:05.264Z,98871.53
2018-09-13T11:58:33.358Z,98872.80
2018-09-13T12:01:01.485Z,98878.83
2018-09-13T12:03:29.578Z,98870.37
2018-09-13T12:05:57.629Z,98874.01
2018-09-13T12:08:25.727Z,98873.09
2018-09-13T12:13:28.531Z,98873.23
2018-09-13T12:15:56.627Z,98868.55
2018-09-13T12:18:24.759Z,98859.42
2018-09-13T12:20:52.808Z,98856.20
2018-09-13T12:23:20.939Z,98854.70
2018-09-13T12:25:49.007Z,98851.76
2018-09-13T12:28:17.120Z,98849.59
2018-09-13T12:30:45.236Z,98840.70
2018-09-13T12:33:13.311Z,98848.66
2018-09-13T12:35:41.429Z,98845.48
2018-09-13T12:38:10.074Z,98845.51
2018-09-13T12:40:38.170Z,98840.90
2018-09-13T12:43:06.276Z,98826.94
2018-09-13T12:45:34.373Z,98831.39
2018-09-13T12:48:02.461Z,98826.45
2018-09-13T12:50:30.592Z,98831.61
2018-09-13T12:52:58.688Z,98830.27
2018-09-13T12:55:32.896Z,98822.58
2018-09-13T12:58:01.452Z,98823.11
2018-09-13T13:00:29.658Z,98823.75
2018-09-13T13:02:57.636Z,98819.73
2018-09-13T13:05:26.002Z,98810.23
2018-09-13T13:07:54.088Z,98806.36
2018-09-13T13:10:22.160Z,98812.33
2018-09-13T13:12:50.532Z,98816.28
2018-09-13T13:15:18.635Z,98808.94
2018-09-13T13:17:46.771Z,98817.20
2018-09-13T13:20:14.861Z,98816.28
2018-09-13T13:22:42.958Z,98816.09
2018-09-13T13:25:11.043Z,98811.89
2018-09-13T13:27:39.281Z,98808.95
2018-09-13T13:30:07.253Z,98818.49
2018-09-13T13:32:35.361Z,98813.23
2018-09-13T13:35:03.460Z,98814.87
2018-09-13T13:37:31.568Z,98817.47
2018-09-13T13:39:59.651Z,98817.25
2018-09-13T13:42:27.744Z,98820.81
2018-09-13T13:44:55.828Z,98825.02
2018-09-13T13:47:23.959Z,98826.75
2018-09-13T13:49:52.052Z,98825.61
2018-09-13T13:52:20.127Z,98825.44
2018-09-13T13:54:48.202Z,98825.41
2018-09-13T13:57:16.314Z,98834.80
2018-09-13T13:59:44.407Z,98833.33
2018-09-13T14:02:12.493Z,98834.13
2018-09-13T14:04:40.559Z,98840.50
2018-09-13T14:07:08.668Z,98842.44
2018-09-13T14:09:36.782Z,98843.72
2018-09-13T14:12:04.862Z,98845.73
2018-09-13T14:14:32.967Z,98854.47
2018-09-13T14:17:01.216Z,98852.27
2018-09-13T14:19:29.352Z,98855.67
2018-09-13T14:21:58.051Z,98856.19
2018-09-13T14:24:26.136Z,98865.62
2018-09-13T14:26:54.215Z,98868.21
2018-09-13T14:29:22.290Z,98876.08
2018-09-13T14:31:50.383Z,98872.37
2018-09-13T14:34:18.452Z,98862.98
2018-09-13T14:36:46.549Z,98864.60
2018-09-13T14:39:14.765Z,98870.81
2018-09-13T14:41:42.924Z,98874.69
2018-09-13T14:44:11.059Z,98870.88
2018-09-13T14:46:39.164Z,98869.07
2018-09-13T14:49:07.361Z,98870.11
2018-09-13T14:51:35.489Z,98871.64
2018-09-13T14:54:03.639Z,98884.69
2018-09-13T14:56:32.155Z,98882.67
2018-09-13T14:59:00.218Z,98894.98
2018-09-13T15:01:29.184Z,98892.41
2018-09-13T15:03:57.254Z,98902.03
2018-09-13T15:06:25.355Z,98909.02
2018-09-13T15:09:00.318Z,98910.42
2018-09-13T15:11:29.452Z,98910.28
2018-09-13T15:38:21.993Z,98938.41
2018-09-13T15:40:50.189Z,98940.41
2018-09-13T15:43:18.354Z,98932.94
2018-09-13T15:45:47.752Z,98938.61
2018-09-13T15:48:15.903Z,98931.64
2018-09-13T15:50:44.069Z,98930.27
2018-09-13T15:53:12.248Z,98929.78
2018-09-13T15:55:40.374Z,98927.09
2018-09-13T15:58:08.548Z,98926.91
2018-09-13T16:00:36.649Z,98925.57
2018-09-13T16:03:05.083Z,98921.75
2018-09-13T16:08:35.516Z,98926.91
2018-09-13T16:11:03.657Z,98928.24
2018-09-13T16:13:31.798Z,98931.08
2018-09-13T16:15:59.937Z,98930.10
2018-09-13T16:18:28.109Z,98927.94
2018-09-13T16:20:56.353Z,98932.10
2018-09-13T16:23:24.476Z,98933.29
2018-09-13T16:25:52.651Z,98926.63
2018-09-13T16:28:20.787Z,98935.11
2018-09-13T16:30:48.925Z,98926.63
2018-09-13T16:33:17.086Z,98926.48
2018-09-13T16:35:47.566Z,98923.80
2018-09-13T16:38:20.942Z,98917.80
2018-09-13T16:40:54.379Z,98916.33
2018-09-13T16:43:27.836Z,98916.65
2018-09-13T16:45:56.381Z,98909.64
2018-09-13T16:48:28.662Z,98910.63
2018-09-13T16:50:56.783Z,98907.30
2018-09-13T16:53:24.887Z,98905.83
2018-09-13T16:55:53.234Z,98906.66
2018-09-13T17:01:25.116Z,98909.64
2018-09-13T17:03:53.654Z,98904.98
2018-09-13T17:06:22.570Z,98910.13
2018-09-13T17:08:50.712Z,98914.12
2018-09-13T17:11:18.854Z,98907.64
2018-09-13T17:13:47.260Z,98897.61
2018-09-13T17:16:15.359Z,98899.25
2018-09-13T17:18:43.700Z,98903.91
2018-09-13T17:21:12.233Z,98902.26
2018-09-13T17:23:40.575Z,98902.93
2018-09-13T17:26:09.641Z,98906.25
2018-09-13T17:28:37.754Z,98906.13
2018-09-13T17:31:05.981Z,98907.47
2018-09-13T17:33:34.079Z,98901.97
2018-09-13T17:36:02.184Z,98905.97
2018-09-13T17:38:30.313Z,98902.32
2018-09-13T17:40:58.501Z,98898.02
2018-09-13T17:43:26.623Z,98901.86
2018-09-13T17:45:54.754Z,98900.02
2018-09-13T17:48:22.882Z,98899.53
2018-09-13T17:50:50.988Z,98897.02
2018-09-13T17:53:19.100Z,98903.02
2018-09-13T17:55:47.275Z,98900.53
2018-09-13T17:58:15.389Z,98903.02
2018-09-13T18:00:43.487Z,98904.67
2018-09-13T18:03:11.686Z,98902.67
2018-09-13T18:05:39.799Z,98899.34
2018-09-13T18:08:08.553Z,98898.99
2018-09-13T18:10:37.167Z,98896.82
2018-09-13T18:13:05.439Z,98892.69
2018-09-13T18:15:33.604Z,98894.52
2018-09-13T18:18:01.689Z,98889.67
2018-09-13T18:20:29.831Z,98894.71
2018-09-13T18:22:57.963Z,98894.56
2018-09-13T18:25:26.065Z,98885.72
2018-09-13T18:27:54.216Z,98900.70
2018-09-13T18:30:22.385Z,98893.88
2018-09-13T18:32:50.679Z,98900.03
2018-09-13T18:35:18.807Z,98898.36
2018-09-13T18:37:47.256Z,98901.54
2018-09-13T18:40:15.397Z,98901.51
2018-09-13T18:42:43.519Z,98909.67
2018-09-13T18:45:11.681Z,98908.02
2018-09-13T18:47:39.788Z,98911.17
2018-09-13T18:50:08.167Z,98910.69
2018-09-13T18:52:36.608Z,98917.50
2018-09-13T18:55:04.732Z,98924.97
2018-09-13T18:57:33.398Z,98931.63
2018-09-13T19:00:01.572Z,98938.30
2018-09-13T19:02:29.702Z,98937.41
2018-09-13T19:04:57.890Z,98933.42
2018-09-13T19:07:26.030Z,98938.10
2018-09-13T19:09:54.259Z,98944.53
2018-09-13T19:15:25.576Z,98953.52
2018-09-13T19:17:53.723Z,98950.68
2018-09-13T19:20:22.343Z,98956.50
2018-09-13T19:22:50.479Z,98964.50
2018-09-13T19:25:18.643Z,98966.66
2018-09-13T19:27:46.784Z,98961.23
2018-09-13T19:30:14.903Z,98959.22
2018-09-13T19:32:43.344Z,98953.26
2018-09-13T19:35:11.436Z,98959.75
2018-09-13T19:37:39.554Z,98966.89
2018-09-13T19:40:08.177Z,98964.50
2018-09-13T19:42:36.299Z,98961.83
2018-09-13T19:45:04.503Z,98960.50
2018-09-13T19:47:32.673Z,98964.29
2018-09-13T19:50:00.790Z,98962.47
2018-09-13T19:52:28.886Z,98961.28
2018-09-13T19:54:56.999Z,98957.94
2018-09-13T19:57:25.912Z,98956.93
2018-09-13T19:59:54.030Z,98954.74
2018-09-13T20:02:22.466Z,98958.58
2018-09-13T20:04:50.612Z,98960.11
2018-09-13T20:07:18.699Z,98954.46
2018-09-13T20:09:46.803Z,98966.05
2018-09-13T20:12:14.920Z,98965.08
2018-09-13T20:14:43.215Z,98960.20
2018-09-13T20:17:11.315Z,98968.02
2018-09-13T20:19:39.672Z,98971.37
2018-09-13T20:22:09.255Z,98972.98
2018-09-13T20:24:36.225Z,98966.33
2018-09-13T20:27:04.530Z,98966.31
2018-09-13T20:29:32.613Z,98972.36
2018-09-13T20:32:00.744Z,98974.20
2018-09-13T20:34:29.056Z,98975.70
2018-09-13T20:36:57.118Z,98979.70
2018-09-13T20:39:25.214Z,98978.18
2018-09-13T20:41:53.303Z,98975.14
2018-09-13T20:44:21.412Z,98970.69
2018-09-13T20:46:49.824Z,98969.57
2018-09-13T20:49:20.211Z,98976.55
2018-09-13T20:51:48.290Z,98987.94
2018-09-13T20:54:16.369Z,98991.85
2018-09-13T20:56:44.438Z,98997.27
2018-09-13T21:02:15.396Z,98997.03
2018-09-13T21:04:43.529Z,98995.84
2018-09-13T21:07:11.719Z,98991.05
2018-09-13T21:09:39.843Z,99004.11
2018-09-13T21:12:08.028Z,98996.23
2018-09-13T21:14:36.171Z,98995.71
2018-09-13T21:17:04.339Z,98999.05
2018-09-13T21:19:32.510Z,98992.73
2018-09-13T21:22:00.590Z,98985.05
2018-09-13T21:24:28.695Z,98991.31
2018-09-13T21:26:56.780Z,98991.15
2018-09-13T21:29:24.880Z,98978.30
2018-09-13T21:31:52.992Z,98988.92
2018-09-13T21:34:21.136Z,98992.52
2018-09-13T21:36:49.218Z,98990.75
2018-09-13T21:39:17.312Z,98992.09
2018-09-13T21:41:45.422Z,98993.21
2018-09-13T21:44:13.592Z,98992.84
2018-09-13T21:46:41.651Z,98994.47
2018-09-13T21:52:12.717Z,98994.09
2018-09-13T21:54:40.916Z,99002.14
